createdAt,value
2023-12-15T00:01:03.028Z,53.60
2023-12-15T00:03:47.017Z,38.97
2023-12-15T00:06:13.939Z,31.57
2023-12-15T00:08:41.921Z,25.77
2023-12-15T00:11:09.477Z,30.87
2023-12-15T00:13:36.441Z,30.20
2023-12-15T00:16:03.496Z,29.50
2023-12-15T00:18:30.041Z,29.93
2023-12-15T00:20:56.793Z,30.60
2023-12-15T00:23:23.232Z,27.30
2023-12-15T00:25:50.050Z,29.30
2023-12-15T00:28:16.674Z,25.73
2023-12-15T00:30:43.528Z,27.13
2023-12-15T00:33:10.070Z,25.00
2023-12-15T00:35:36.902Z,28.00
2023-12-15T00:38:03.490Z,23.83
2023-12-15T00:40:30.416Z,24.93
2023-12-15T00:42:56.889Z,24.10
2023-12-15T00:45:23.731Z,24.93
2023-12-15T00:47:50.492Z,21.97
2023-12-15T00:50:17.466Z,24.67
2023-12-15T00:52:43.818Z,27.90
2023-12-15T00:55:10.611Z,23.77
2023-12-15T00:57:37.177Z,27.13
2023-12-15T01:00:04.873Z,26.60
2023-12-15T01:02:31.483Z,28.13
2023-12-15T01:04:58.361Z,25.40
2023-12-15T01:07:25.204Z,23.73
2023-12-15T01:09:51.928Z,26.10
2023-12-15T01:12:18.288Z,29.93
2023-12-15T01:14:45.332Z,23.50
2023-12-15T01:17:11.795Z,30.27
2023-12-15T01:19:38.542Z,27.60
2023-12-15T01:22:04.933Z,30.40
2023-12-15T01:24:31.636Z,27.77
2023-12-15T01:26:58.032Z,52.63
2023-12-15T01:29:24.726Z,72.87
2023-12-15T01:31:51.411Z,63.70
2023-12-15T01:34:18.191Z,33.93
2023-12-15T01:36:44.606Z,24.97
2023-12-15T01:39:11.345Z,25.37
2023-12-15T01:41:37.776Z,24.40
2023-12-15T01:44:04.617Z,21.93
2023-12-15T01:46:31.170Z,21.53
2023-12-15T01:48:58.774Z,91.23
2023-12-15T01:51:26.398Z,183.23
2023-12-15T01:53:53.140Z,159.40
2023-12-15T01:56:19.639Z,126.20
2023-12-15T01:58:46.351Z,53.10
2023-12-15T02:01:12.946Z,47.73
2023-12-15T02:03:40.470Z,77.77
2023-12-15T02:06:07.179Z,65.90
2023-12-15T02:08:34.033Z,41.27
2023-12-15T02:11:00.577Z,36.47
2023-12-15T02:13:28.009Z,30.57
2023-12-15T02:15:54.677Z,25.93
2023-12-15T02:18:21.511Z,24.13
2023-12-15T02:20:48.013Z,19.30
2023-12-15T02:23:14.799Z,28.77
2023-12-15T02:25:41.267Z,24.43
2023-12-15T02:28:08.083Z,25.47
2023-12-15T02:30:34.529Z,21.27
2023-12-15T02:33:01.430Z,21.90
2023-12-15T02:35:28.085Z,17.13
2023-12-15T02:37:54.923Z,14.80
2023-12-15T02:40:21.322Z,14.13
2023-12-15T02:42:48.049Z,15.33
2023-12-15T02:45:14.535Z,16.60
2023-12-15T02:47:41.863Z,20.37
2023-12-15T02:50:11.374Z,19.27
2023-12-15T02:52:38.113Z,16.73
2023-12-15T02:55:05.110Z,19.63
2023-12-15T02:57:31.875Z,14.40
2023-12-15T02:59:58.296Z,24.60
2023-12-15T03:02:25.068Z,18.23
2023-12-15T03:04:51.457Z,15.77
2023-12-15T03:07:18.265Z,16.40
2023-12-15T03:09:44.593Z,17.60
2023-12-15T03:12:11.290Z,14.53
2023-12-15T03:14:37.659Z,14.67
2023-12-15T03:17:05.018Z,17.10
2023-12-15T03:19:32.484Z,18.57
2023-12-15T03:21:59.199Z,17.17
2023-12-15T03:24:25.598Z,16.93
2023-12-15T03:26:52.240Z,18.80
2023-12-15T03:29:18.720Z,16.40
2023-12-15T03:31:45.587Z,16.30
2023-12-15T03:34:12.061Z,15.40
2023-12-15T03:36:39.278Z,18.93
2023-12-15T03:39:06.572Z,12.97
2023-12-15T03:41:33.413Z,15.90
2023-12-15T03:44:00.261Z,12.33
2023-12-15T03:46:27.037Z,13.00
2023-12-15T03:48:53.750Z,14.57
2023-12-15T03:51:20.430Z,17.53
2023-12-15T03:53:46.821Z,17.33
2023-12-15T03:56:13.810Z,18.43
2023-12-15T03:58:40.254Z,14.43
2023-12-15T04:01:07.006Z,14.87
2023-12-15T04:03:33.510Z,15.00
2023-12-15T04:06:02.412Z,19.50
2023-12-15T04:08:29.079Z,13.17
2023-12-15T04:10:56.963Z,15.53
2023-12-15T04:13:23.970Z,13.70
2023-12-15T04:15:55.191Z,16.67
2023-12-15T04:18:23.361Z,13.10
2023-12-15T04:20:50.353Z,14.10
2023-12-15T04:23:16.924Z,16.87
2023-12-15T04:25:43.872Z,19.30
2023-12-15T04:28:10.498Z,19.90
2023-12-15T04:30:37.480Z,15.43
2023-12-15T04:33:04.137Z,14.93
2023-12-15T04:35:31.447Z,14.87
2023-12-15T04:37:58.188Z,12.60
2023-12-15T04:40:25.363Z,14.57
2023-12-15T04:42:52.271Z,17.67
2023-12-15T04:45:19.296Z,13.17
2023-12-15T04:47:46.079Z,13.83
2023-12-15T04:50:13.069Z,18.20
2023-12-15T04:52:39.585Z,16.77
2023-12-15T04:55:06.716Z,14.40
2023-12-15T04:57:33.554Z,13.27
2023-12-15T05:00:00.504Z,13.27
2023-12-15T05:02:26.939Z,12.43
2023-12-15T05:04:53.896Z,13.60
2023-12-15T05:07:20.388Z,14.67
2023-12-15T05:09:47.710Z,17.00
2023-12-15T05:12:14.080Z,13.87
2023-12-15T05:14:40.829Z,13.57
2023-12-15T05:17:07.224Z,16.03
2023-12-15T05:19:33.986Z,14.00
2023-12-15T05:22:00.364Z,14.77
2023-12-15T05:24:27.177Z,16.57
2023-12-15T05:26:53.697Z,13.57
2023-12-15T05:29:20.321Z,15.13
2023-12-15T05:31:46.889Z,11.57
2023-12-15T05:34:14.673Z,15.53
2023-12-15T05:36:41.553Z,14.90
2023-12-15T05:39:08.455Z,14.20
2023-12-15T05:44:07.715Z,16.17
2023-12-15T05:46:36.080Z,12.10
2023-12-15T05:49:03.163Z,14.00
2023-12-15T05:51:29.725Z,12.40
2023-12-15T05:53:58.507Z,13.23
2023-12-15T05:56:25.215Z,13.90
2023-12-15T05:58:52.449Z,18.43
2023-12-15T06:01:18.800Z,15.70
2023-12-15T06:03:45.945Z,17.50
2023-12-15T06:06:12.762Z,18.60
2023-12-15T06:08:39.622Z,14.37
2023-12-15T06:11:06.313Z,13.50
2023-12-15T06:13:33.056Z,14.83
2023-12-15T06:15:59.910Z,13.43
2023-12-15T06:18:27.117Z,12.60
2023-12-15T06:20:53.738Z,13.03
2023-12-15T06:23:21.936Z,13.30
2023-12-15T06:25:48.812Z,16.10
2023-12-15T06:28:15.487Z,15.90
2023-12-15T06:30:42.211Z,17.37
2023-12-15T06:33:09.089Z,15.63
2023-12-15T06:35:35.758Z,17.10
2023-12-15T06:38:02.943Z,17.30
2023-12-15T06:40:29.609Z,14.20
2023-12-15T06:42:56.887Z,15.87
2023-12-15T06:45:23.442Z,16.27
2023-12-15T06:47:50.679Z,14.83
2023-12-15T06:50:17.558Z,14.13
2023-12-15T06:52:45.365Z,18.33
2023-12-15T06:55:11.878Z,17.23
2023-12-15T06:57:39.179Z,13.83
2023-12-15T07:00:07.388Z,14.47
2023-12-15T07:02:34.949Z,13.27
2023-12-15T07:05:01.843Z,20.03
2023-12-15T07:07:29.058Z,15.83
2023-12-15T07:09:55.608Z,15.90
2023-12-15T07:12:22.319Z,13.60
2023-12-15T07:14:48.721Z,15.03
2023-12-15T07:17:16.650Z,16.57
2023-12-15T07:19:43.435Z,12.93
2023-12-15T07:22:10.388Z,14.13
2023-12-15T07:24:36.993Z,14.30
2023-12-15T07:27:04.979Z,15.77
2023-12-15T07:29:31.652Z,16.67
2023-12-15T07:32:02.025Z,13.40
2023-12-15T07:34:28.552Z,15.87
2023-12-15T07:36:56.326Z,14.77
2023-12-15T07:39:23.011Z,15.47
2023-12-15T07:41:49.933Z,16.00
2023-12-15T07:44:17.119Z,15.57
2023-12-15T07:46:44.599Z,17.33
2023-12-15T07:49:11.401Z,16.37
2023-12-15T07:51:38.470Z,17.67
2023-12-15T07:54:05.421Z,14.30
2023-12-15T07:56:33.977Z,18.67
2023-12-15T07:59:00.799Z,15.23
2023-12-15T08:01:27.766Z,16.70
2023-12-15T08:03:54.491Z,15.63
2023-12-15T08:06:21.651Z,17.37
2023-12-15T08:08:48.465Z,19.00
2023-12-15T08:11:15.559Z,13.83
2023-12-15T08:13:42.354Z,17.97
2023-12-15T08:16:13.140Z,16.03
2023-12-15T08:18:42.358Z,14.67
2023-12-15T08:21:11.208Z,15.33
2023-12-15T08:23:38.090Z,19.00
2023-12-15T08:26:05.512Z,16.93
2023-12-15T08:28:32.283Z,17.50
2023-12-15T08:30:59.612Z,17.20
2023-12-15T08:33:28.174Z,17.07
2023-12-15T08:35:55.065Z,19.43
2023-12-15T08:38:21.640Z,17.20
2023-12-15T08:40:48.659Z,19.90
2023-12-15T08:43:15.320Z,19.27
2023-12-15T08:45:42.264Z,19.43
2023-12-15T08:48:09.048Z,19.80
2023-12-15T08:50:36.286Z,23.97
2023-12-15T08:53:02.941Z,19.10
2023-12-15T08:55:29.887Z,17.17
2023-12-15T08:57:56.732Z,17.53
2023-12-15T09:00:24.004Z,15.40
2023-12-15T09:02:53.039Z,17.53
2023-12-15T09:05:38.063Z,19.30
2023-12-15T09:08:10.762Z,21.43
2023-12-15T09:10:42.978Z,22.47
2023-12-15T09:13:11.065Z,16.93
2023-12-15T09:15:38.161Z,19.33
2023-12-15T09:18:06.125Z,19.60
2023-12-15T09:20:34.160Z,19.03
2023-12-15T09:23:06.161Z,19.17
2023-12-15T09:25:33.243Z,19.43
2023-12-15T09:27:59.752Z,18.83
2023-12-15T09:30:26.541Z,16.23
2023-12-15T09:32:53.181Z,16.63
2023-12-15T09:35:20.374Z,18.70
2023-12-15T09:37:46.961Z,14.90
2023-12-15T09:40:14.809Z,17.67
2023-12-15T09:42:41.514Z,19.93
2023-12-15T09:45:08.761Z,15.93
2023-12-15T09:47:38.397Z,16.83
2023-12-15T09:50:08.171Z,15.73
2023-12-15T09:52:37.500Z,19.50
2023-12-15T09:55:06.866Z,21.10
2023-12-15T09:57:34.822Z,18.97
2023-12-15T10:00:01.677Z,15.90
2023-12-15T10:02:30.958Z,14.47
2023-12-15T10:04:58.342Z,16.53
2023-12-15T10:07:24.929Z,15.57
2023-12-15T10:09:52.649Z,16.00
2023-12-15T10:12:19.617Z,14.93
2023-12-15T10:14:46.640Z,16.13
2023-12-15T10:17:14.105Z,18.47
2023-12-15T10:19:41.027Z,14.33
2023-12-15T10:22:07.619Z,19.17
2023-12-15T10:24:35.627Z,22.90
2023-12-15T10:27:04.166Z,16.97
2023-12-15T10:29:31.134Z,14.97
2023-12-15T10:31:58.617Z,17.10
2023-12-15T10:34:27.800Z,19.27
2023-12-15T10:36:55.092Z,17.27
2023-12-15T10:39:23.073Z,18.93
2023-12-15T10:41:52.259Z,20.33
2023-12-15T10:44:21.293Z,21.50
2023-12-15T10:46:47.844Z,18.97
2023-12-15T10:49:17.200Z,20.60
2023-12-15T10:51:44.160Z,15.80
2023-12-15T10:54:11.198Z,18.00
2023-12-15T10:56:38.696Z,17.67
2023-12-15T10:59:07.322Z,17.40
2023-12-15T11:01:36.471Z,16.80
2023-12-15T11:04:20.109Z,17.30
2023-12-15T11:06:47.157Z,17.33
2023-12-15T11:09:39.797Z,20.77
2023-12-15T11:12:32.051Z,19.50
2023-12-15T11:15:04.274Z,20.03
2023-12-15T11:17:31.986Z,19.17
2023-12-15T11:20:03.903Z,18.27
2023-12-15T11:22:41.125Z,15.73
2023-12-15T11:25:09.061Z,17.23
2023-12-15T11:28:10.079Z,17.97
2023-12-15T11:30:42.756Z,18.03
2023-12-15T11:33:22.993Z,20.17
2023-12-15T11:36:01.915Z,19.53
2023-12-15T11:38:29.961Z,15.73
2023-12-15T11:40:57.836Z,21.60
2023-12-15T11:43:24.623Z,18.00
2023-12-15T11:45:53.195Z,23.00
2023-12-15T11:48:22.187Z,18.90
2023-12-15T11:50:48.940Z,22.33
2023-12-15T11:53:16.182Z,22.93
2023-12-15T11:55:45.165Z,19.23
2023-12-15T11:58:11.492Z,19.17
2023-12-15T12:00:38.710Z,19.27
2023-12-15T12:03:05.352Z,20.10
2023-12-15T12:05:32.989Z,19.50
2023-12-15T12:08:01.135Z,19.07
2023-12-15T12:10:31.625Z,21.63
2023-12-15T12:12:59.090Z,21.37
2023-12-15T12:15:28.104Z,19.17
2023-12-15T12:17:56.317Z,23.43
2023-12-15T12:20:28.127Z,18.80
2023-12-15T12:22:56.348Z,18.13
2023-12-15T12:25:23.323Z,19.90
2023-12-15T12:27:51.574Z,20.80
2023-12-15T12:30:19.108Z,20.67
2023-12-15T12:32:47.627Z,21.93
2023-12-15T12:35:14.509Z,20.60
2023-12-15T12:37:41.036Z,20.07
2023-12-15T12:40:08.680Z,21.07
2023-12-15T12:42:35.292Z,17.07
2023-12-15T12:45:03.041Z,24.20
2023-12-15T12:47:29.859Z,20.93
2023-12-15T12:49:57.331Z,21.97
2023-12-15T12:52:23.758Z,18.27
2023-12-15T12:54:50.744Z,22.10
2023-12-15T12:57:17.373Z,19.73
2023-12-15T12:59:45.378Z,20.90
2023-12-15T13:02:18.712Z,22.27
2023-12-15T13:04:50.317Z,19.80
2023-12-15T13:07:17.066Z,20.23
2023-12-15T13:09:45.054Z,21.33
2023-12-15T13:12:18.034Z,19.93
2023-12-15T13:14:48.362Z,21.90
2023-12-15T13:17:16.404Z,21.67
2023-12-15T13:19:43.211Z,18.90
2023-12-15T13:22:09.668Z,20.47
2023-12-15T13:24:46.504Z,22.27
2023-12-15T13:27:22.293Z,19.33
2023-12-15T13:29:49.462Z,19.60
2023-12-15T13:32:18.056Z,19.57
2023-12-15T13:34:48.324Z,17.73
2023-12-15T13:37:15.553Z,19.77
2023-12-15T13:39:42.373Z,18.53
2023-12-15T13:42:08.882Z,19.17
2023-12-15T13:44:36.748Z,14.20
2023-12-15T13:47:04.123Z,19.27
2023-12-15T13:49:32.533Z,17.47
2023-12-15T13:52:00.290Z,16.00
2023-12-15T13:54:28.106Z,20.07
2023-12-15T13:56:57.301Z,17.23
2023-12-15T13:59:24.778Z,18.97
2023-12-15T14:01:51.516Z,17.97
2023-12-15T14:04:18.801Z,16.43
2023-12-15T14:06:50.402Z,16.10
2023-12-15T14:09:17.990Z,19.30
2023-12-15T14:11:44.671Z,15.80
2023-12-15T14:14:12.004Z,18.27
2023-12-15T14:16:44.445Z,17.23
2023-12-15T14:19:18.479Z,15.90
2023-12-15T14:21:46.618Z,17.67
2023-12-15T14:24:17.457Z,19.87
2023-12-15T14:26:45.005Z,16.70
2023-12-15T14:29:12.206Z,18.00
2023-12-15T14:31:38.859Z,17.23
2023-12-15T14:34:06.042Z,17.47
2023-12-15T14:36:32.988Z,17.40
2023-12-15T14:39:00.254Z,20.10
2023-12-15T14:41:27.814Z,18.67
2023-12-15T14:43:57.929Z,19.33
2023-12-15T14:46:24.600Z,16.40
2023-12-15T14:48:51.801Z,16.30
2023-12-15T14:51:18.782Z,18.17
2023-12-15T14:53:45.890Z,16.30
2023-12-15T14:56:14.864Z,16.17
2023-12-15T14:58:41.763Z,18.00
2023-12-15T15:01:08.907Z,17.53
2023-12-15T15:03:36.269Z,18.10
2023-12-15T15:06:04.088Z,15.13
2023-12-15T15:08:31.500Z,15.50
2023-12-15T15:10:59.205Z,17.23
2023-12-15T15:13:26.629Z,15.77
2023-12-15T15:15:53.415Z,17.17
2023-12-15T15:18:21.387Z,16.17
2023-12-15T15:20:48.469Z,15.17
2023-12-15T15:23:17.175Z,16.07
2023-12-15T15:25:43.925Z,16.17
2023-12-15T15:28:11.029Z,14.90
2023-12-15T15:30:39.032Z,14.83
2023-12-15T15:33:06.221Z,16.53
2023-12-15T15:35:33.364Z,14.70
2023-12-15T15:38:00.653Z,17.90
2023-12-15T15:40:28.029Z,17.27
2023-12-15T15:42:55.397Z,15.17
2023-12-15T15:45:22.443Z,22.27
2023-12-15T15:47:50.839Z,17.00
2023-12-15T15:50:18.038Z,19.20
2023-12-15T15:52:44.895Z,17.97
2023-12-15T15:55:15.079Z,16.80
2023-12-15T15:57:42.494Z,20.27
2023-12-15T16:00:09.781Z,19.40
2023-12-15T16:02:40.184Z,18.07
2023-12-15T16:05:07.399Z,16.77
2023-12-15T16:07:35.332Z,16.40
2023-12-15T16:10:02.676Z,19.10
2023-12-15T16:12:29.969Z,18.70
2023-12-15T16:14:56.618Z,20.40
2023-12-15T16:17:23.618Z,20.73
2023-12-15T16:19:50.295Z,19.73
2023-12-15T16:22:17.471Z,22.43
2023-12-15T16:24:45.878Z,21.40
2023-12-15T16:27:13.317Z,19.73
2023-12-15T16:29:39.800Z,19.67
2023-12-15T16:32:07.211Z,23.87
2023-12-15T16:34:34.648Z,22.73
2023-12-15T16:37:02.184Z,19.80
2023-12-15T16:39:28.991Z,20.70
2023-12-15T16:41:56.167Z,21.97
2023-12-15T16:44:23.698Z,21.10
2023-12-15T16:46:50.595Z,19.93
2023-12-15T16:49:17.143Z,21.30
2023-12-15T16:51:46.092Z,21.43
2023-12-15T16:54:12.772Z,24.27
2023-12-15T16:56:40.033Z,21.00
2023-12-15T16:59:06.998Z,24.10
2023-12-15T17:01:33.871Z,24.97
2023-12-15T17:04:00.573Z,20.27
2023-12-15T17:06:27.556Z,20.70
2023-12-15T17:08:54.301Z,19.70
2023-12-15T17:11:21.105Z,22.83
2023-12-15T17:13:47.717Z,22.50
2023-12-15T17:16:21.485Z,22.50
2023-12-15T17:18:49.507Z,23.60
2023-12-15T17:21:16.690Z,24.50
2023-12-15T17:23:43.695Z,21.57
2023-12-15T17:26:15.768Z,23.67
2023-12-15T17:28:42.615Z,20.37
2023-12-15T17:31:11.656Z,19.97
2023-12-15T17:33:38.737Z,23.47
2023-12-15T17:36:06.152Z,24.90
2023-12-15T17:38:32.789Z,23.77
2023-12-15T17:40:59.673Z,27.03
2023-12-15T17:43:27.526Z,24.80
2023-12-15T17:45:54.357Z,24.00
2023-12-15T17:48:21.774Z,23.47
2023-12-15T17:50:49.557Z,26.27
2023-12-15T17:53:16.300Z,28.47
2023-12-15T17:55:43.895Z,27.90
2023-12-15T17:58:12.244Z,25.33
2023-12-15T18:00:42.426Z,26.03
2023-12-15T18:03:10.325Z,28.47
2023-12-15T18:05:37.555Z,28.70
2023-12-15T18:08:04.597Z,25.90
2023-12-15T18:10:31.622Z,27.50
2023-12-15T18:12:58.313Z,29.73
2023-12-15T18:15:25.201Z,30.20
2023-12-15T18:17:52.188Z,32.97
2023-12-15T18:20:19.074Z,30.50
2023-12-15T18:22:46.045Z,31.60
2023-12-15T18:25:16.171Z,34.97
2023-12-15T18:27:44.449Z,32.70
2023-12-15T18:30:14.554Z,33.73
2023-12-15T18:32:42.206Z,37.47
2023-12-15T18:35:09.591Z,39.97
2023-12-15T18:37:36.323Z,34.23
2023-12-15T18:40:03.832Z,31.67
2023-12-15T18:42:30.525Z,35.47
2023-12-15T18:44:57.394Z,38.13
2023-12-15T18:47:25.296Z,32.27
2023-12-15T18:49:52.145Z,32.53
2023-12-15T18:52:19.733Z,32.60
2023-12-15T18:54:47.936Z,33.13
2023-12-15T18:57:15.820Z,33.87
2023-12-15T18:59:43.158Z,37.37
2023-12-15T19:02:10.139Z,39.63
2023-12-15T19:04:37.226Z,30.83
2023-12-15T19:07:04.534Z,41.23
2023-12-15T19:09:31.608Z,40.33
2023-12-15T19:11:58.414Z,33.33
2023-12-15T19:14:25.464Z,36.07
2023-12-15T19:16:52.182Z,32.80
2023-12-15T19:19:19.214Z,37.10
2023-12-15T19:21:46.290Z,37.40
2023-12-15T19:24:13.197Z,33.93
2023-12-15T19:26:40.626Z,33.10
2023-12-15T19:29:08.228Z,32.63
2023-12-15T19:31:37.896Z,31.27
2023-12-15T19:34:05.664Z,37.47
2023-12-15T19:36:37.248Z,41.43
2023-12-15T19:39:07.818Z,32.83
2023-12-15T19:41:35.095Z,32.50
2023-12-15T19:44:05.490Z,34.93
2023-12-15T19:46:38.315Z,36.73
2023-12-15T19:49:06.245Z,31.70
2023-12-15T19:51:32.830Z,41.13
2023-12-15T19:54:05.712Z,32.67
2023-12-15T19:56:41.248Z,33.97
2023-12-15T19:59:09.177Z,37.47
2023-12-15T20:01:36.039Z,36.47
2023-12-15T20:04:04.468Z,39.03
2023-12-15T20:06:33.366Z,29.13
2023-12-15T20:09:04.560Z,35.57
2023-12-15T20:11:36.982Z,37.47
2023-12-15T20:14:05.999Z,33.13
2023-12-15T20:16:33.334Z,33.13
2023-12-15T20:19:01.230Z,32.53
2023-12-15T20:21:32.576Z,31.30
2023-12-15T20:23:59.751Z,28.73
2023-12-15T20:26:27.095Z,32.50
2023-12-15T20:28:54.557Z,34.83
2023-12-15T20:31:22.638Z,31.17
2023-12-15T20:33:49.764Z,30.87
2023-12-15T20:36:19.243Z,28.50
2023-12-15T20:38:46.334Z,28.50
2023-12-15T20:41:21.003Z,29.90
2023-12-15T20:43:49.047Z,28.97
2023-12-15T20:46:19.281Z,29.97
2023-12-15T20:48:46.677Z,28.27
2023-12-15T20:51:23.602Z,29.53
2023-12-15T20:53:50.321Z,28.33
2023-12-15T20:56:27.346Z,26.83
2023-12-15T20:58:55.106Z,27.10
2023-12-15T21:01:22.288Z,30.03
2023-12-15T21:03:49.168Z,24.67
2023-12-15T21:06:23.646Z,21.73
2023-12-15T21:08:54.634Z,26.13
2023-12-15T21:11:21.925Z,25.13
2023-12-15T21:13:51.616Z,22.93
2023-12-15T21:16:26.165Z,29.27
2023-12-15T21:18:53.501Z,24.20
2023-12-15T21:21:31.557Z,27.00
2023-12-15T21:23:58.708Z,24.07
2023-12-15T21:26:26.080Z,22.97
2023-12-15T21:28:54.744Z,22.93
2023-12-15T21:31:22.067Z,20.93
2023-12-15T21:33:49.308Z,23.93
2023-12-15T21:36:16.610Z,23.70
2023-12-15T21:38:43.761Z,25.17
2023-12-15T21:41:15.015Z,25.90
2023-12-15T21:43:42.067Z,21.03
2023-12-15T21:46:09.158Z,26.10
2023-12-15T21:48:35.788Z,21.13
2023-12-15T21:51:03.176Z,28.03
2023-12-15T21:53:29.945Z,28.87
2023-12-15T21:55:57.031Z,29.27
2023-12-15T21:58:24.041Z,28.87
2023-12-15T22:00:51.429Z,29.37
2023-12-15T22:03:18.455Z,28.63
2023-12-15T22:05:46.811Z,27.27
2023-12-15T22:08:13.536Z,26.73
2023-12-15T22:10:40.842Z,24.50
2023-12-15T22:13:08.616Z,28.50
2023-12-15T22:15:36.280Z,32.63
2023-12-15T22:18:03.330Z,29.60
2023-12-15T22:20:31.033Z,30.53
2023-12-15T22:22:57.939Z,28.30
2023-12-15T22:25:25.217Z,31.63
2023-12-15T22:27:52.230Z,28.47
2023-12-15T22:30:24.705Z,28.93
2023-12-15T22:32:52.900Z,28.43
2023-12-15T22:35:20.862Z,28.23
2023-12-15T22:37:47.858Z,29.37
2023-12-15T22:40:16.065Z,33.33
2023-12-15T22:42:43.982Z,30.70
2023-12-15T22:45:11.673Z,33.33
2023-12-15T22:47:39.706Z,35.37
2023-12-15T22:50:08.723Z,39.20
2023-12-15T22:52:36.042Z,32.43
2023-12-15T22:55:03.868Z,32.97
2023-12-15T22:57:30.523Z,35.97
2023-12-15T22:59:57.380Z,34.50
2023-12-15T23:02:24.172Z,29.97
2023-12-15T23:04:51.569Z,29.57
2023-12-15T23:07:18.931Z,31.27
2023-12-15T23:09:47.501Z,38.50
2023-12-15T23:12:14.041Z,33.80
2023-12-15T23:14:41.847Z,30.23
2023-12-15T23:17:09.130Z,29.80
2023-12-15T23:19:36.682Z,33.97
2023-12-15T23:22:03.507Z,35.00
2023-12-15T23:24:32.769Z,30.10
2023-12-15T23:27:00.104Z,32.97
2023-12-15T23:29:27.519Z,29.80
2023-12-15T23:31:56.599Z,30.57
2023-12-15T23:34:24.499Z,30.27
2023-12-15T23:36:51.360Z,33.73
2023-12-15T23:39:18.572Z,32.67
2023-12-15T23:41:47.940Z,35.03
2023-12-15T23:44:14.944Z,34.77
2023-12-15T23:46:42.082Z,30.27
2023-12-15T23:49:08.889Z,29.80
2023-12-15T23:51:35.335Z,32.17
2023-12-15T23:54:03.709Z,34.23
2023-12-15T23:56:30.500Z,36.23
2023-12-15T23:58:57.202Z,29.90
